createdAt,value
2019-06-26T00:00:24.066Z,4.60
2019-06-26T00:02:54.696Z,5.53
2019-06-26T00:05:25.390Z,5.30
2019-06-26T00:07:55.916Z,5.33
2019-06-26T00:10:26.378Z,5.20
2019-06-26T00:12:56.993Z,5.43
2019-06-26T00:15:27.396Z,5.00
2019-06-26T00:17:57.803Z,5.53
2019-06-26T00:20:28.452Z,6.10
2019-06-26T00:22:58.875Z,6.30
2019-06-26T00:25:29.336Z,5.47
2019-06-26T00:27:59.878Z,6.13
2019-06-26T00:30:30.334Z,6.23
2019-06-26T00:33:00.971Z,6.20
2019-06-26T00:35:31.650Z,7.13
2019-06-26T00:38:02.042Z,7.30
2019-06-26T00:40:32.454Z,7.30
2019-06-26T00:43:02.902Z,8.00
2019-06-26T00:45:33.464Z,7.37
2019-06-26T00:48:03.952Z,7.70
2019-06-26T00:50:34.627Z,7.93
2019-06-26T00:53:05.011Z,8.43
2019-06-26T00:55:35.495Z,7.97
2019-06-26T00:58:05.917Z,8.40
2019-06-26T01:00:41.413Z,8.20
2019-06-26T01:03:11.880Z,8.50
2019-06-26T01:05:42.797Z,7.53
2019-06-26T01:08:13.211Z,8.00
2019-06-26T01:10:44.111Z,7.57
2019-06-26T01:13:14.613Z,7.87
2019-06-26T01:15:45.014Z,7.37
2019-06-26T01:18:15.605Z,7.67
2019-06-26T01:20:46.001Z,7.60
2019-06-26T01:23:16.939Z,7.10
2019-06-26T01:25:47.371Z,7.50
2019-06-26T01:28:17.901Z,7.10
2019-06-26T01:30:48.535Z,7.73
2019-06-26T01:33:18.982Z,7.47
2019-06-26T01:35:49.809Z,7.13
2019-06-26T01:38:21.249Z,7.00
2019-06-26T01:40:51.823Z,6.97
2019-06-26T01:43:22.627Z,7.60
2019-06-26T01:45:53.005Z,7.23
2019-06-26T01:48:23.673Z,7.30
2019-06-26T01:50:54.124Z,7.33
2019-06-26T01:53:28.566Z,6.90
2019-06-26T01:55:58.955Z,7.17
2019-06-26T01:58:29.622Z,6.57
2019-06-26T02:00:59.998Z,6.60
2019-06-26T02:03:31.074Z,6.93
2019-06-26T02:06:02.148Z,6.37
2019-06-26T02:08:32.678Z,6.53
2019-06-26T02:11:03.115Z,7.10
2019-06-26T02:13:33.732Z,6.53
2019-06-26T02:16:04.374Z,6.90
2019-06-26T02:18:45.189Z,7.20
2019-06-26T02:21:15.968Z,6.73
2019-06-26T02:23:46.486Z,6.83
2019-06-26T02:26:16.938Z,7.00
2019-06-26T02:28:47.601Z,7.00
2019-06-26T02:31:18.009Z,6.67
2019-06-26T02:33:48.421Z,6.70
2019-06-26T02:36:19.043Z,6.57
2019-06-26T02:38:49.439Z,6.73
2019-06-26T02:41:20.125Z,7.10
2019-06-26T02:43:50.812Z,6.60
2019-06-26T02:46:21.204Z,6.73
2019-06-26T02:48:51.986Z,7.30
2019-06-26T02:51:22.497Z,6.53
2019-06-26T02:53:52.920Z,7.30
2019-06-26T02:56:23.557Z,7.30
2019-06-26T02:58:54.024Z,6.97
2019-06-26T03:01:24.447Z,6.73
2019-06-26T03:03:55.272Z,7.00
2019-06-26T03:06:25.705Z,7.10
2019-06-26T03:08:56.157Z,7.17
2019-06-26T03:11:26.792Z,7.03
2019-06-26T03:13:57.194Z,7.00
2019-06-26T03:16:28.240Z,7.07
2019-06-26T03:18:58.663Z,7.23
2019-06-26T03:21:29.159Z,6.90
2019-06-26T03:23:59.718Z,7.40
2019-06-26T03:26:30.200Z,7.10
2019-06-26T03:29:00.763Z,7.87
2019-06-26T03:31:31.306Z,7.03
2019-06-26T03:34:01.788Z,7.53
2019-06-26T03:36:32.313Z,7.67
2019-06-26T03:39:02.740Z,7.53
2019-06-26T03:41:33.319Z,6.43
2019-06-26T03:44:04.079Z,7.63
2019-06-26T03:46:34.815Z,7.13
2019-06-26T03:49:05.622Z,7.93
2019-06-26T03:51:36.731Z,7.37
2019-06-26T03:54:07.220Z,7.27
2019-06-26T03:56:37.903Z,7.10
2019-06-26T03:59:08.411Z,6.70
2019-06-26T04:01:39.310Z,7.67
2019-06-26T04:04:09.815Z,7.20
2019-06-26T04:06:40.294Z,7.60
2019-06-26T04:09:11.824Z,8.20
2019-06-26T04:11:43.138Z,7.70
2019-06-26T04:14:13.667Z,7.80
2019-06-26T04:16:45.271Z,8.73
2019-06-26T04:19:15.882Z,8.33
2019-06-26T04:21:46.560Z,7.73
2019-06-26T04:24:17.257Z,7.70
2019-06-26T04:26:47.944Z,8.67
2019-06-26T04:29:18.437Z,7.90
2019-06-26T04:31:48.999Z,8.10
2019-06-26T04:34:19.832Z,7.73
2019-06-26T04:36:50.438Z,8.00
2019-06-26T04:39:21.324Z,8.27
2019-06-26T04:41:51.758Z,7.53
2019-06-26T04:44:22.393Z,8.90
2019-06-26T04:46:52.869Z,8.53
2019-06-26T04:49:23.361Z,8.33
2019-06-26T04:51:54.156Z,8.20
2019-06-26T04:54:24.630Z,8.40
2019-06-26T04:56:55.080Z,8.03
2019-06-26T04:59:25.666Z,8.80
2019-06-26T05:01:56.136Z,8.77
2019-06-26T05:04:26.909Z,8.83
2019-06-26T05:06:58.413Z,8.50
2019-06-26T05:09:29.243Z,8.77
2019-06-26T05:11:59.660Z,8.67
2019-06-26T05:14:30.230Z,8.43
2019-06-26T05:17:00.884Z,12.27
2019-06-26T05:19:31.320Z,8.87
2019-06-26T05:22:01.776Z,8.70
2019-06-26T05:24:32.555Z,9.00
2019-06-26T05:27:03.441Z,11.03
2019-06-26T05:29:33.912Z,9.57
2019-06-26T05:32:04.482Z,10.80
2019-06-26T05:34:35.167Z,10.97
2019-06-26T05:37:05.767Z,11.20
2019-06-26T05:39:36.469Z,11.40
2019-06-26T05:42:07.015Z,10.90
2019-06-26T05:44:37.919Z,11.20
2019-06-26T05:47:08.330Z,10.67
2019-06-26T05:49:38.939Z,11.87
2019-06-26T05:52:09.507Z,11.37
2019-06-26T05:54:40.093Z,11.50
2019-06-26T05:57:11.772Z,11.87
2019-06-26T05:59:42.301Z,11.57
2019-06-26T06:02:13.072Z,11.00
2019-06-26T06:04:43.602Z,11.23
2019-06-26T06:07:14.051Z,12.63
2019-06-26T06:09:44.663Z,11.23
2019-06-26T06:12:15.111Z,11.13
2019-06-26T06:14:45.523Z,11.33
2019-06-26T06:17:15.966Z,10.77
2019-06-26T06:19:46.580Z,11.53
2019-06-26T06:22:17.083Z,10.53
2019-06-26T06:24:47.666Z,10.93
2019-06-26T06:27:18.266Z,11.23
2019-06-26T06:29:48.758Z,11.10
2019-06-26T06:32:19.326Z,11.23
2019-06-26T06:34:49.802Z,11.57
2019-06-26T06:37:20.222Z,11.50
2019-06-26T06:39:50.710Z,10.90
2019-06-26T06:42:22.200Z,10.53
2019-06-26T06:44:52.824Z,10.77
2019-06-26T06:47:23.643Z,10.70
2019-06-26T06:49:54.193Z,10.43
2019-06-26T06:52:24.865Z,11.07
2019-06-26T06:54:55.648Z,10.17
2019-06-26T06:57:26.219Z,10.30
2019-06-26T06:59:56.685Z,10.73
2019-06-26T07:02:27.090Z,11.13
2019-06-26T07:04:58.017Z,10.47
2019-06-26T07:07:28.447Z,11.00
2019-06-26T07:09:59.183Z,10.90
2019-06-26T07:12:29.697Z,10.20
2019-06-26T07:15:00.292Z,10.10
2019-06-26T07:17:30.839Z,10.27
2019-06-26T07:20:01.370Z,10.07
2019-06-26T07:22:32.033Z,10.30
2019-06-26T07:25:02.441Z,9.70
2019-06-26T07:27:33.338Z,10.33
2019-06-26T07:30:04.033Z,11.00
2019-06-26T07:32:34.810Z,10.90
2019-06-26T07:35:05.708Z,10.10
2019-06-26T07:37:36.268Z,10.30
2019-06-26T07:40:07.877Z,10.57
2019-06-26T07:42:38.517Z,10.10
2019-06-26T07:45:10.249Z,9.80
2019-06-26T07:47:43.685Z,10.00
2019-06-26T07:50:13.822Z,10.37
2019-06-26T07:52:44.258Z,10.30
2019-06-26T07:55:15.153Z,10.40
2019-06-26T07:57:46.767Z,10.13
2019-06-26T08:00:17.748Z,10.80
2019-06-26T08:02:48.437Z,9.73
2019-06-26T08:05:19.013Z,9.70
2019-06-26T08:07:49.515Z,10.20
2019-06-26T08:10:20.298Z,10.17
2019-06-26T08:12:50.999Z,10.17
2019-06-26T08:15:21.891Z,10.23
2019-06-26T08:18:00.514Z,9.40
2019-06-26T08:20:24.654Z,10.13
2019-06-26T08:22:55.351Z,10.20
2019-06-26T08:25:25.777Z,9.30
2019-06-26T08:27:56.191Z,9.73
2019-06-26T08:30:26.956Z,9.30
2019-06-26T08:32:57.619Z,10.03
2019-06-26T08:35:28.315Z,10.07
2019-06-26T08:38:09.429Z,9.53
2019-06-26T08:40:31.332Z,9.28
2019-06-26T08:43:02.077Z,10.28
2019-06-26T08:45:32.620Z,9.33
2019-06-26T08:48:18.909Z,9.88
2019-06-26T08:50:35.631Z,9.45
2019-06-26T08:53:06.090Z,9.38
2019-06-26T08:55:36.768Z,9.03
2019-06-26T08:58:07.572Z,9.35
2019-06-26T09:00:38.085Z,9.65
2019-06-26T09:03:08.518Z,9.10
2019-06-26T09:05:47.843Z,9.95
2019-06-26T09:08:11.446Z,9.87
2019-06-26T09:10:44.952Z,10.50
2019-06-26T09:13:14.808Z,9.38
2019-06-26T09:15:49.546Z,9.45
2019-06-26T09:18:31.038Z,9.50
2019-06-26T09:20:49.919Z,9.63
2019-06-26T09:23:20.636Z,10.20
2019-06-26T09:25:51.095Z,9.23
2019-06-26T09:28:21.662Z,9.78
2019-06-26T09:30:52.271Z,9.63
2019-06-26T09:33:22.786Z,9.25
2019-06-26T09:35:53.584Z,10.10
2019-06-26T09:38:24.086Z,9.95
2019-06-26T09:40:54.818Z,10.20
2019-06-26T09:43:25.364Z,9.13
2019-06-26T09:45:56.174Z,10.05
2019-06-26T09:48:26.691Z,9.98
2019-06-26T09:50:57.146Z,10.23
2019-06-26T09:53:27.974Z,10.30
2019-06-26T09:55:58.710Z,9.70
2019-06-26T09:58:29.223Z,9.80
2019-06-26T10:00:59.715Z,9.48
2019-06-26T10:03:30.409Z,9.65
2019-06-26T10:06:01.009Z,8.83
2019-06-26T10:08:31.809Z,9.43
2019-06-26T10:11:09.914Z,9.13
2019-06-26T10:13:40.317Z,8.80
2019-06-26T10:16:10.952Z,8.95
2019-06-26T10:18:41.661Z,8.90
2019-06-26T10:21:12.456Z,8.83
2019-06-26T10:23:42.863Z,9.05
2019-06-26T10:26:13.371Z,9.30
2019-06-26T10:28:44.229Z,9.00
2019-06-26T10:31:18.259Z,8.70
2019-06-26T10:33:46.857Z,8.73
2019-06-26T10:36:17.446Z,8.85
2019-06-26T10:38:47.886Z,9.10
2019-06-26T10:41:18.361Z,8.08
2019-06-26T10:43:49.017Z,8.18
2019-06-26T10:46:19.520Z,8.33
2019-06-26T10:48:50.010Z,8.38
2019-06-26T10:51:20.867Z,8.40
2019-06-26T10:53:51.461Z,8.10
2019-06-26T10:56:22.049Z,7.40
2019-06-26T10:58:52.591Z,7.75
2019-06-26T11:01:23.270Z,7.60
2019-06-26T11:03:53.852Z,7.58
2019-06-26T11:06:24.411Z,8.00
2019-06-26T11:08:55.063Z,7.47
2019-06-26T11:11:28.817Z,7.53
2019-06-26T11:13:59.430Z,7.72
2019-06-26T11:16:29.900Z,8.13
2019-06-26T11:19:00.535Z,7.92
2019-06-26T11:21:31.074Z,8.00
2019-06-26T11:24:02.013Z,8.20
2019-06-26T11:26:32.432Z,7.60
2019-06-26T11:29:02.870Z,7.53
2019-06-26T11:31:33.307Z,8.33
2019-06-26T11:34:03.936Z,8.00
2019-06-26T11:36:34.862Z,8.10
2019-06-26T11:39:07.110Z,8.25
2019-06-26T11:41:37.711Z,7.90
2019-06-26T11:44:09.599Z,8.50
2019-06-26T11:46:40.125Z,8.43
2019-06-26T11:49:10.851Z,7.55
2019-06-26T11:51:41.317Z,7.75
2019-06-26T11:54:11.736Z,7.65
2019-06-26T11:56:42.479Z,7.75
2019-06-26T11:59:12.880Z,7.60
2019-06-26T12:01:43.339Z,7.62
2019-06-26T12:04:14.121Z,8.05
2019-06-26T12:06:46.152Z,7.40
2019-06-26T12:09:16.491Z,7.67
2019-06-26T12:11:46.906Z,7.62
2019-06-26T12:14:17.637Z,7.58
2019-06-26T12:16:48.023Z,7.85
2019-06-26T12:19:22.364Z,7.35
2019-06-26T12:21:50.719Z,7.47
2019-06-26T12:24:21.482Z,7.25
2019-06-26T12:26:52.220Z,7.10
2019-06-26T12:29:22.828Z,7.60
2019-06-26T12:31:53.389Z,7.05
2019-06-26T12:34:24.273Z,6.90
2019-06-26T12:36:54.722Z,6.70
2019-06-26T12:39:25.536Z,6.58
2019-06-26T12:41:55.922Z,6.58
2019-06-26T12:44:26.401Z,6.53
2019-06-26T12:46:57.075Z,7.08
2019-06-26T12:49:31.295Z,7.67
2019-06-26T12:52:01.875Z,5.90
2019-06-26T12:54:32.620Z,5.50
2019-06-26T12:57:03.154Z,6.08
2019-06-26T12:59:33.894Z,5.53
2019-06-26T13:02:04.460Z,7.40
2019-06-26T13:04:35.165Z,6.40
2019-06-26T13:07:05.618Z,5.22
2019-06-26T13:09:36.056Z,5.35
2019-06-26T13:12:06.719Z,4.80
2019-06-26T13:14:37.299Z,4.72
2019-06-26T13:17:07.765Z,4.70
2019-06-26T13:19:38.381Z,4.95
2019-06-26T13:22:08.854Z,5.12
2019-06-26T13:24:42.945Z,5.15
2019-06-26T13:27:11.943Z,5.33
2019-06-26T13:29:42.532Z,4.90
2019-06-26T13:32:16.452Z,4.40
2019-06-26T13:34:45.415Z,4.90
2019-06-26T13:37:16.022Z,4.78
2019-06-26T13:39:46.433Z,5.72
2019-06-26T13:42:16.911Z,5.35
2019-06-26T13:44:47.364Z,5.10
2019-06-26T13:47:17.788Z,5.25
2019-06-26T13:49:48.582Z,5.20
2019-06-26T13:52:19.034Z,4.80
2019-06-26T13:54:49.789Z,5.15
2019-06-26T13:57:20.182Z,6.08
2019-06-26T13:59:50.820Z,5.22
2019-06-26T14:02:21.526Z,5.17
2019-06-26T14:04:51.988Z,5.40
2019-06-26T14:07:22.670Z,5.28
2019-06-26T14:09:53.181Z,4.75
2019-06-26T14:12:23.675Z,5.58
2019-06-26T14:14:57.701Z,6.12
2019-06-26T14:17:26.797Z,5.70
2019-06-26T14:19:57.292Z,5.40
2019-06-26T14:22:28.174Z,5.15
2019-06-26T14:24:58.893Z,5.80
2019-06-26T14:30:38.547Z,5.42
2019-06-26T14:33:09.511Z,6.80
2019-06-26T14:35:40.295Z,6.03
2019-06-26T14:38:11.224Z,5.47
2019-06-26T14:40:42.181Z,5.85
2019-06-26T14:43:12.876Z,5.87
2019-06-26T14:45:44.804Z,5.65
2019-06-26T14:48:15.709Z,5.90
2019-06-26T14:50:46.327Z,5.80
2019-06-26T14:53:16.752Z,6.00
2019-06-26T14:55:47.320Z,6.15
2019-06-26T14:58:17.820Z,5.83
2019-06-26T15:00:48.282Z,5.62
2019-06-26T15:03:18.934Z,5.30
2019-06-26T15:05:49.378Z,6.00
2019-06-26T15:08:19.991Z,5.50
2019-06-26T15:10:50.396Z,6.35
2019-06-26T15:13:20.861Z,5.72
2019-06-26T15:15:54.658Z,6.47
2019-06-26T15:18:23.298Z,6.15
2019-06-26T15:20:53.964Z,5.90
2019-06-26T15:23:24.508Z,6.55
2019-06-26T15:25:55.100Z,6.40
2019-06-26T15:28:25.695Z,6.22
2019-06-26T15:30:56.185Z,6.10
2019-06-26T15:33:26.804Z,6.58
2019-06-26T15:35:57.317Z,5.97
2019-06-26T15:38:27.969Z,6.53
2019-06-26T15:40:58.514Z,6.40
2019-06-26T15:43:29.169Z,6.50
2019-06-26T15:45:59.971Z,6.33
2019-06-26T15:48:30.499Z,6.28
2019-06-26T15:51:01.101Z,6.60
2019-06-26T15:53:32.566Z,6.50
2019-06-26T15:56:03.105Z,6.60
2019-06-26T15:58:33.705Z,6.42
2019-06-26T16:01:04.352Z,6.53
2019-06-26T16:03:35.175Z,6.50
2019-06-26T16:06:05.824Z,6.55
2019-06-26T16:08:36.695Z,6.03
2019-06-26T16:11:07.151Z,6.47
2019-06-26T16:13:37.783Z,6.60
2019-06-26T16:16:08.525Z,6.55
2019-06-26T16:18:44.354Z,6.10
2019-06-26T16:21:15.287Z,7.00
2019-06-26T16:23:46.269Z,6.72
2019-06-26T16:26:18.427Z,6.35
2019-06-26T16:28:48.957Z,6.50
2019-06-26T16:31:19.751Z,6.97
2019-06-26T16:33:50.323Z,7.03
2019-06-26T16:36:21.009Z,7.25
2019-06-26T16:38:51.917Z,6.85
2019-06-26T16:41:22.567Z,7.03
2019-06-26T16:43:53.137Z,6.67
2019-06-26T16:46:23.575Z,6.85
2019-06-26T16:48:54.106Z,6.72
2019-06-26T16:51:24.519Z,7.40
2019-06-26T16:53:55.078Z,8.55
2019-06-26T16:56:25.527Z,6.50
2019-06-26T16:58:56.146Z,6.72
2019-06-26T17:01:26.643Z,6.58
2019-06-26T17:03:57.506Z,6.53
2019-06-26T17:06:27.936Z,6.55
2019-06-26T17:08:58.698Z,6.70
2019-06-26T17:11:29.162Z,6.22
2019-06-26T17:13:59.608Z,6.08
2019-06-26T17:16:30.334Z,6.30
2019-06-26T17:19:00.833Z,6.05
2019-06-26T17:21:31.524Z,5.72
2019-06-26T17:24:01.984Z,6.70
2019-06-26T17:26:32.843Z,6.05
2019-06-26T17:29:03.416Z,6.08
2019-06-26T17:31:33.868Z,6.00
2019-06-26T17:34:04.679Z,6.40
2019-06-26T17:36:36.096Z,5.78
2019-06-26T17:39:07.406Z,5.67
2019-06-26T17:41:38.129Z,5.72
2019-06-26T17:44:08.731Z,5.80
2019-06-26T17:46:39.269Z,5.58
2019-06-26T17:49:09.855Z,5.35
2019-06-26T17:51:40.520Z,5.85
2019-06-26T17:54:11.355Z,6.00
2019-06-26T17:56:41.941Z,6.30
2019-06-26T17:59:13.496Z,6.10
2019-06-26T18:01:43.903Z,6.08
2019-06-26T18:04:14.685Z,6.33
2019-06-26T18:06:45.180Z,6.33
2019-06-26T18:09:15.758Z,5.75
2019-06-26T18:11:46.574Z,17.17
2019-06-26T18:14:17.253Z,6.70
2019-06-26T18:16:47.920Z,5.92
2019-06-26T18:19:18.989Z,6.15
2019-06-26T18:21:49.399Z,7.25
2019-06-26T18:24:19.863Z,7.30
2019-06-26T18:26:50.620Z,6.72
2019-06-26T18:29:21.363Z,8.28
2019-06-26T18:31:52.023Z,7.60
2019-06-26T18:34:22.530Z,6.72
2019-06-26T18:36:53.065Z,6.55
2019-06-26T18:39:23.564Z,6.67
2019-06-26T18:41:54.052Z,6.80
2019-06-26T18:44:24.850Z,6.53
2019-06-26T18:46:55.280Z,12.50
2019-06-26T18:49:25.927Z,6.55
2019-06-26T18:51:56.626Z,6.83
2019-06-26T18:54:27.432Z,7.03
2019-06-26T18:56:57.990Z,6.58
2019-06-26T18:59:28.452Z,7.85
2019-06-26T19:01:59.114Z,7.05
2019-06-26T19:04:29.710Z,7.33
2019-06-26T19:07:00.282Z,6.55
2019-06-26T19:09:30.946Z,7.20
2019-06-26T19:12:01.500Z,7.10
2019-06-26T19:14:31.981Z,7.05
2019-06-26T19:17:02.424Z,7.00
2019-06-26T19:19:33.135Z,6.85
2019-06-26T19:22:03.621Z,7.17
2019-06-26T19:24:34.056Z,6.97
2019-06-26T19:27:07.497Z,7.33
2019-06-26T19:29:36.872Z,7.90
2019-06-26T19:32:07.583Z,7.60
2019-06-26T19:34:38.626Z,7.55
2019-06-26T19:37:09.109Z,8.65
2019-06-26T19:39:39.978Z,8.40
2019-06-26T19:42:10.475Z,7.72
2019-06-26T19:44:41.210Z,8.17
2019-06-26T19:47:11.697Z,8.47
2019-06-26T19:49:42.279Z,8.58
2019-06-26T19:52:13.189Z,8.50
2019-06-26T19:54:43.958Z,8.17
2019-06-26T19:57:14.598Z,7.33
2019-06-26T19:59:45.345Z,8.07
2019-06-26T20:02:15.893Z,8.63
2019-06-26T20:04:48.404Z,7.90
2019-06-26T20:07:18.428Z,8.70
2019-06-26T20:09:49.023Z,7.57
2019-06-26T20:12:19.474Z,7.73
2019-06-26T20:14:50.058Z,7.73
2019-06-26T20:17:20.584Z,7.80
2019-06-26T20:19:51.082Z,7.90
2019-06-26T20:22:21.724Z,7.67
2019-06-26T20:24:52.165Z,7.75
2019-06-26T20:27:23.734Z,8.13
2019-06-26T20:29:54.468Z,8.17
2019-06-26T20:32:25.058Z,8.40
2019-06-26T20:34:55.455Z,8.13
2019-06-26T20:40:45.825Z,8.40
2019-06-26T20:43:15.718Z,7.77
2019-06-26T20:45:46.568Z,8.10
2019-06-26T20:48:17.078Z,8.50
2019-06-26T20:50:47.884Z,7.47
2019-06-26T20:53:18.382Z,8.00
2019-06-26T20:55:48.962Z,7.30
2019-06-26T20:58:19.525Z,7.23
2019-06-26T21:00:50.262Z,7.40
2019-06-26T21:03:21.426Z,7.60
2019-06-26T21:05:52.067Z,7.57
2019-06-26T21:08:22.784Z,7.93
2019-06-26T21:10:53.245Z,7.07
2019-06-26T21:13:24.296Z,7.53
2019-06-26T21:15:55.012Z,7.37
2019-06-26T21:18:25.671Z,8.60
2019-06-26T21:20:56.281Z,8.50
2019-06-26T21:23:27.116Z,8.37
2019-06-26T21:25:57.564Z,9.00
2019-06-26T21:28:28.007Z,9.40
2019-06-26T21:30:58.645Z,8.13
2019-06-26T21:33:29.075Z,8.87
2019-06-26T21:35:59.871Z,9.07
2019-06-26T21:38:30.373Z,9.40
2019-06-26T21:41:00.861Z,8.93
2019-06-26T21:43:31.635Z,9.83
2019-06-26T21:46:02.143Z,9.30
2019-06-26T21:48:32.622Z,9.17
2019-06-26T21:51:03.283Z,9.37
2019-06-26T21:53:34.091Z,14.00
2019-06-26T21:56:22.520Z,17.27
2019-06-26T21:59:11.019Z,19.87
2019-06-26T22:01:59.448Z,22.10
2019-06-26T22:04:47.777Z,22.27
2019-06-26T22:07:28.865Z,20.10
2019-06-26T22:10:05.923Z,18.07
2019-06-26T22:12:38.419Z,17.67
2019-06-26T22:15:12.498Z,15.47
2019-06-26T22:17:43.182Z,14.70
2019-06-26T22:20:15.634Z,12.60
2019-06-26T22:22:46.284Z,12.20
2019-06-26T22:25:16.750Z,12.10
2019-06-26T22:27:47.624Z,11.83
2019-06-26T22:30:18.905Z,9.43
2019-06-26T22:32:49.696Z,10.17
2019-06-26T22:35:20.180Z,15.03
2019-06-26T22:37:50.626Z,11.47
2019-06-26T22:40:22.410Z,9.17
2019-06-26T22:42:52.862Z,9.30
2019-06-26T22:45:24.631Z,8.20
2019-06-26T22:47:55.211Z,7.90
2019-06-26T22:50:26.130Z,7.77
2019-06-26T22:52:56.510Z,7.87
2019-06-26T22:55:27.114Z,10.43
2019-06-26T22:57:57.524Z,7.63
2019-06-26T23:00:28.572Z,8.03
2019-06-26T23:02:59.068Z,7.33
2019-06-26T23:05:29.509Z,6.93
2019-06-26T23:08:00.282Z,7.83
2019-06-26T23:10:30.785Z,7.53
2019-06-26T23:13:01.428Z,7.50
2019-06-26T23:15:31.850Z,7.27
2019-06-26T23:18:02.451Z,7.03
2019-06-26T23:20:33.516Z,7.17
2019-06-26T23:23:03.982Z,7.17
2019-06-26T23:25:35.458Z,7.23
2019-06-26T23:28:05.999Z,6.80
2019-06-26T23:30:36.405Z,7.10
2019-06-26T23:33:07.003Z,7.23
2019-06-26T23:35:37.505Z,7.93
2019-06-26T23:38:07.879Z,7.30
2019-06-26T23:40:38.583Z,7.67
2019-06-26T23:43:09.121Z,7.60
2019-06-26T23:45:39.711Z,7.50
2019-06-26T23:48:10.362Z,7.97
2019-06-26T23:50:40.871Z,7.97
2019-06-26T23:53:11.567Z,7.50
2019-06-26T23:55:41.982Z,8.70
2019-06-26T23:58:12.725Z,7.63
